createdAt,value
2022-10-07T00:00:51.325Z,100.00
2022-10-07T00:03:19.796Z,100.00
2022-10-07T00:05:46.611Z,100.00
2022-10-07T00:08:13.554Z,100.00
2022-10-07T00:10:41.843Z,100.00
2022-10-07T00:13:12.423Z,100.00
2022-10-07T00:15:39.309Z,100.00
2022-10-07T00:18:06.246Z,100.00
2022-10-07T00:20:40.476Z,100.00
2022-10-07T00:23:07.944Z,100.00
2022-10-07T00:25:38.015Z,100.00
2022-10-07T00:28:05.623Z,100.00
2022-10-07T00:30:32.519Z,100.00
2022-10-07T00:32:59.245Z,100.00
2022-10-07T00:35:25.990Z,100.00
2022-10-07T00:37:52.625Z,100.00
2022-10-07T00:40:19.320Z,100.00
2022-10-07T00:42:46.003Z,100.00
2022-10-07T00:45:15.242Z,100.00
2022-10-07T00:47:46.022Z,100.00
2022-10-07T00:50:27.961Z,100.00
2022-10-07T00:52:59.714Z,100.00
2022-10-07T00:55:29.081Z,100.00
2022-10-07T00:58:00.368Z,100.00
2022-10-07T01:00:27.164Z,100.00
2022-10-07T01:02:54.045Z,100.00
2022-10-07T01:05:20.900Z,100.00
2022-10-07T01:07:49.922Z,100.00
2022-10-07T01:10:20.454Z,100.00
2022-10-07T01:13:08.733Z,100.00
2022-10-07T01:15:35.441Z,100.00
2022-10-07T01:18:26.272Z,100.00
2022-10-07T01:21:31.315Z,100.00
2022-10-07T01:24:09.945Z,100.00
2022-10-07T01:26:58.408Z,100.00
2022-10-07T01:29:40.710Z,100.00
2022-10-07T01:32:17.872Z,100.00
2022-10-07T01:34:47.381Z,100.00
2022-10-07T01:37:18.039Z,100.00
2022-10-07T01:39:50.081Z,100.00
2022-10-07T01:42:19.072Z,100.00
2022-10-07T01:44:49.571Z,100.00
2022-10-07T01:47:17.269Z,100.00
2022-10-07T01:49:43.995Z,100.00
2022-10-07T01:52:16.632Z,100.00
2022-10-07T01:55:17.456Z,100.00
2022-10-07T01:58:10.726Z,100.00
2022-10-07T02:00:46.884Z,100.00
2022-10-07T02:03:21.556Z,100.00
2022-10-07T02:06:00.827Z,100.00
2022-10-07T02:08:30.555Z,100.00
2022-10-07T02:11:02.984Z,100.00
2022-10-07T02:13:41.718Z,100.00
2022-10-07T02:16:48.528Z,100.00
2022-10-07T02:19:28.566Z,100.00
2022-10-07T02:21:57.594Z,100.00
2022-10-07T02:24:27.968Z,100.00
2022-10-07T02:26:57.243Z,100.00
2022-10-07T02:29:27.268Z,100.00
2022-10-07T02:31:58.767Z,100.00
2022-10-07T02:34:27.031Z,100.00
2022-10-07T02:37:01.842Z,100.00
2022-10-07T02:39:29.420Z,100.00
2022-10-07T02:42:06.747Z,100.00
2022-10-07T02:44:43.025Z,100.00
2022-10-07T02:47:51.222Z,100.00
2022-10-07T02:50:23.765Z,100.00
2022-10-07T02:52:55.761Z,100.00
2022-10-07T02:55:27.694Z,100.00
2022-10-07T02:57:59.359Z,100.00
2022-10-07T03:00:29.719Z,100.00
2022-10-07T03:02:59.174Z,100.00
2022-10-07T03:05:26.419Z,100.00
2022-10-07T03:07:57.948Z,100.00
2022-10-07T03:10:26.961Z,100.00
2022-10-07T03:12:53.928Z,100.00
2022-10-07T03:15:20.746Z,100.00
2022-10-07T03:17:47.616Z,100.00
2022-10-07T03:20:15.242Z,100.00
2022-10-07T03:22:43.713Z,100.00
2022-10-07T03:25:11.921Z,100.00
2022-10-07T03:27:39.603Z,100.00
2022-10-07T03:30:07.286Z,100.00
2022-10-07T03:32:34.246Z,100.00
2022-10-07T03:35:01.028Z,100.00
2022-10-07T03:37:30.784Z,100.00
2022-10-07T03:39:57.644Z,100.00
2022-10-07T03:42:24.320Z,100.00
2022-10-07T03:44:52.433Z,100.00
2022-10-07T03:47:19.209Z,100.00
2022-10-07T03:49:46.066Z,100.00
2022-10-07T03:52:12.863Z,100.00
2022-10-07T03:54:39.774Z,100.00
2022-10-07T03:57:29.133Z,100.00
2022-10-07T03:59:56.017Z,100.00
2022-10-07T04:02:25.979Z,100.00
2022-10-07T04:04:52.914Z,100.00
2022-10-07T04:07:22.918Z,100.00
2022-10-07T04:09:49.641Z,100.00
2022-10-07T04:12:16.371Z,100.00
2022-10-07T04:14:43.098Z,100.00
2022-10-07T04:17:09.772Z,100.00
2022-10-07T04:19:36.462Z,100.00
2022-10-07T04:22:08.436Z,100.00
2022-10-07T04:24:35.487Z,100.00
2022-10-07T04:27:05.164Z,100.00
2022-10-07T04:29:36.741Z,100.00
2022-10-07T04:32:05.928Z,100.00
2022-10-07T04:34:32.651Z,100.00
2022-10-07T04:37:01.265Z,100.00
2022-10-07T04:39:49.089Z,100.00
2022-10-07T04:42:33.559Z,100.00
2022-10-07T04:45:00.445Z,100.00
2022-10-07T04:47:27.074Z,100.00
2022-10-07T04:49:55.202Z,100.00
2022-10-07T04:52:21.996Z,100.00
2022-10-07T04:54:48.896Z,100.00
2022-10-07T04:57:15.586Z,100.00
2022-10-07T04:59:43.212Z,100.00
2022-10-07T05:02:10.303Z,100.00
2022-10-07T05:04:37.252Z,100.00
2022-10-07T05:07:04.765Z,100.00
2022-10-07T05:09:31.442Z,100.00
2022-10-07T05:11:58.185Z,100.00
2022-10-07T05:14:25.004Z,100.00
2022-10-07T05:16:52.280Z,100.00
2022-10-07T05:19:20.187Z,100.00
2022-10-07T05:21:47.069Z,100.00
2022-10-07T05:24:13.780Z,100.00
2022-10-07T05:26:40.532Z,100.00
2022-10-07T05:29:07.209Z,100.00
2022-10-07T05:31:34.132Z,100.00
2022-10-07T05:34:01.611Z,100.00
2022-10-07T05:36:28.449Z,100.00
2022-10-07T05:38:58.220Z,100.00
2022-10-07T05:41:25.239Z,100.00
2022-10-07T05:43:52.048Z,100.00
2022-10-07T05:46:23.887Z,100.00
2022-10-07T05:48:52.592Z,100.00
2022-10-07T05:51:24.643Z,100.00
2022-10-07T05:53:55.664Z,100.00
2022-10-07T05:56:22.697Z,100.00
2022-10-07T05:58:50.805Z,100.00
2022-10-07T06:01:19.719Z,100.00
2022-10-07T06:03:54.605Z,100.00
2022-10-07T06:06:21.550Z,100.00
2022-10-07T06:08:48.992Z,100.00
2022-10-07T06:11:35.720Z,100.00
2022-10-07T06:14:03.802Z,100.00
2022-10-07T06:16:30.630Z,100.00
2022-10-07T06:18:57.895Z,100.00
2022-10-07T06:21:27.996Z,100.00
2022-10-07T06:23:56.327Z,100.00
2022-10-07T06:26:23.946Z,100.00
2022-10-07T06:28:50.834Z,97.89
2022-10-07T06:31:22.569Z,93.57
2022-10-07T06:33:51.835Z,82.54
2022-10-07T06:36:19.147Z,80.55
2022-10-07T06:38:50.323Z,78.08
2022-10-07T06:41:17.639Z,76.25
2022-10-07T06:43:44.593Z,78.49
2022-10-07T06:46:19.581Z,74.35
2022-10-07T06:48:46.828Z,74.68
2022-10-07T06:51:15.971Z,75.42
2022-10-07T06:53:43.953Z,70.47
2022-10-07T06:56:13.755Z,67.96
2022-10-07T06:58:40.654Z,68.61
2022-10-07T07:01:07.453Z,67.43
2022-10-07T07:03:34.137Z,66.14
2022-10-07T07:06:02.162Z,65.44
2022-10-07T07:08:32.012Z,64.17
2022-10-07T07:11:28.004Z,61.63
2022-10-07T07:13:55.019Z,60.44
2022-10-07T07:16:22.271Z,62.58
2022-10-07T07:18:53.837Z,63.95
2022-10-07T07:21:22.214Z,64.72
2022-10-07T07:23:51.158Z,65.25
2022-10-07T07:26:20.918Z,66.51
2022-10-07T07:29:05.821Z,66.69
2022-10-07T07:31:35.369Z,60.96
2022-10-07T07:34:05.663Z,64.20
2022-10-07T07:36:36.274Z,60.90
2022-10-07T07:39:12.998Z,61.45
2022-10-07T07:41:42.491Z,60.26
2022-10-07T07:44:12.914Z,59.75
2022-10-07T07:46:43.908Z,58.86
2022-10-07T07:49:12.391Z,59.58
2022-10-07T07:51:42.560Z,58.65
2022-10-07T07:54:10.722Z,58.46
2022-10-07T07:56:37.954Z,57.59
2022-10-07T07:59:05.499Z,56.91
2022-10-07T08:01:32.960Z,54.35
2022-10-07T08:04:00.891Z,54.53
2022-10-07T08:06:28.549Z,52.66
2022-10-07T08:08:57.462Z,53.43
2022-10-07T08:11:24.313Z,54.26
2022-10-07T08:13:51.655Z,53.65
2022-10-07T08:16:21.910Z,54.42
2022-10-07T08:18:50.499Z,55.37
2022-10-07T08:21:21.148Z,54.09
2022-10-07T08:23:48.357Z,53.93
2022-10-07T08:26:15.192Z,51.70
2022-10-07T08:28:42.234Z,51.10
2022-10-07T08:31:15.938Z,51.81
2022-10-07T08:33:45.135Z,50.92
2022-10-07T08:36:20.172Z,49.82
2022-10-07T08:38:47.832Z,48.95
2022-10-07T08:41:33.298Z,48.31
2022-10-07T08:44:26.064Z,47.94
2022-10-07T08:47:08.652Z,48.96
2022-10-07T08:49:53.959Z,48.71
2022-10-07T08:52:29.775Z,48.02
2022-10-07T08:54:56.591Z,45.79
2022-10-07T08:57:29.186Z,46.52
2022-10-07T09:00:01.637Z,47.33
2022-10-07T09:02:46.724Z,46.67
2022-10-07T09:05:24.510Z,47.08
2022-10-07T09:07:58.118Z,45.28
2022-10-07T09:10:44.166Z,45.20
2022-10-07T09:13:40.444Z,45.56
2022-10-07T09:16:23.377Z,46.01
2022-10-07T09:19:00.460Z,44.99
2022-10-07T09:21:50.652Z,44.97
2022-10-07T09:24:26.127Z,44.89
2022-10-07T09:26:56.850Z,44.97
2022-10-07T09:29:29.312Z,43.60
2022-10-07T09:31:58.143Z,44.96
2022-10-07T09:34:29.898Z,44.35
2022-10-07T09:37:19.838Z,44.29
2022-10-07T09:39:49.209Z,43.72
2022-10-07T09:42:35.681Z,44.68
2022-10-07T09:45:17.896Z,43.89
2022-10-07T09:47:45.061Z,45.45
2022-10-07T09:50:37.729Z,45.38
2022-10-07T09:53:16.774Z,44.44
2022-10-07T09:55:44.107Z,44.65
2022-10-07T09:58:20.870Z,44.99
2022-10-07T10:00:50.351Z,44.29
2022-10-07T10:03:18.474Z,42.60
2022-10-07T10:06:14.402Z,44.05
2022-10-07T10:08:44.795Z,43.18
2022-10-07T10:11:20.674Z,42.62
2022-10-07T10:13:50.664Z,43.98
2022-10-07T10:16:26.236Z,43.88
2022-10-07T10:19:04.412Z,42.23
2022-10-07T10:21:41.600Z,43.00
2022-10-07T10:24:13.927Z,43.47
2022-10-07T10:27:16.530Z,43.54
2022-10-07T10:30:09.451Z,43.90
2022-10-07T10:33:01.156Z,44.37
2022-10-07T10:36:27.370Z,42.07
2022-10-07T10:39:18.555Z,41.98
2022-10-07T10:41:56.821Z,42.85
2022-10-07T10:44:58.442Z,42.13
2022-10-07T10:47:54.276Z,43.39
2022-10-07T10:50:32.252Z,42.67
2022-10-07T10:53:34.503Z,41.60
2022-10-07T10:56:10.045Z,42.93
2022-10-07T10:58:52.923Z,43.27
2022-10-07T11:01:39.894Z,43.81
2022-10-07T11:04:13.655Z,43.28
2022-10-07T11:06:46.803Z,41.68
2022-10-07T11:09:38.782Z,42.75
2022-10-07T11:12:31.408Z,42.48
2022-10-07T11:15:07.621Z,42.29
2022-10-07T11:17:37.652Z,42.22
2022-10-07T11:20:27.984Z,42.60
2022-10-07T11:23:00.527Z,41.71
2022-10-07T11:25:57.492Z,42.53
2022-10-07T11:28:29.027Z,42.30
2022-10-07T11:31:10.168Z,41.97
2022-10-07T11:33:49.201Z,42.83
2022-10-07T11:36:25.203Z,42.83
2022-10-07T11:38:53.276Z,42.71
2022-10-07T11:41:33.801Z,43.61
2022-10-07T11:44:09.854Z,43.64
2022-10-07T11:46:41.139Z,44.45
2022-10-07T11:49:32.754Z,43.29
2022-10-07T11:52:24.612Z,43.47
2022-10-07T11:55:00.628Z,43.59
2022-10-07T11:57:31.993Z,43.93
2022-10-07T12:00:28.743Z,43.49
2022-10-07T12:02:57.174Z,43.99
2022-10-07T12:05:36.016Z,43.40
2022-10-07T12:08:30.668Z,43.56
2022-10-07T12:11:19.868Z,43.03
2022-10-07T12:13:49.691Z,42.57
2022-10-07T12:16:28.557Z,42.90
2022-10-07T12:19:06.388Z,42.67
2022-10-07T12:21:51.583Z,41.89
2022-10-07T12:24:18.291Z,42.67
2022-10-07T12:26:46.707Z,42.38
2022-10-07T12:29:22.626Z,42.40
2022-10-07T12:31:49.950Z,42.18
2022-10-07T12:34:34.969Z,42.77
2022-10-07T12:37:39.723Z,42.74
2022-10-07T12:40:35.189Z,43.57
2022-10-07T12:43:45.323Z,43.02
2022-10-07T12:46:18.839Z,43.30
2022-10-07T12:48:58.696Z,43.36
2022-10-07T12:51:38.745Z,44.36
2022-10-07T12:54:24.870Z,44.31
2022-10-07T12:56:51.820Z,45.07
2022-10-07T12:59:49.745Z,45.78
2022-10-07T13:02:55.209Z,45.33
2022-10-07T13:05:53.978Z,44.79
2022-10-07T13:08:42.388Z,43.56
2022-10-07T13:11:09.000Z,43.82
2022-10-07T13:13:59.289Z,44.07
2022-10-07T13:16:32.062Z,42.98
2022-10-07T13:19:07.069Z,42.00
2022-10-07T13:21:39.167Z,42.12
2022-10-07T13:24:06.333Z,42.39
2022-10-07T13:26:33.520Z,42.08
2022-10-07T13:29:01.422Z,41.70
2022-10-07T13:31:32.062Z,42.56
2022-10-07T13:34:01.561Z,42.67
2022-10-07T13:36:32.574Z,43.72
2022-10-07T13:39:19.407Z,44.20
2022-10-07T13:41:49.000Z,44.27
2022-10-07T13:44:19.480Z,45.21
2022-10-07T13:47:00.308Z,44.70
2022-10-07T13:49:40.939Z,44.27
2022-10-07T13:52:29.343Z,43.67
2022-10-07T13:54:56.075Z,44.03
2022-10-07T13:57:31.254Z,43.96
2022-10-07T14:00:00.212Z,43.93
2022-10-07T14:02:27.886Z,44.08
2022-10-07T14:05:02.289Z,44.27
2022-10-07T14:07:29.354Z,44.56
2022-10-07T14:09:59.237Z,44.41
2022-10-07T14:12:33.122Z,44.72
2022-10-07T14:15:13.707Z,44.97
2022-10-07T14:17:47.730Z,45.28
2022-10-07T14:20:33.905Z,44.69
2022-10-07T14:23:04.727Z,45.03
2022-10-07T14:25:54.194Z,44.52
2022-10-07T14:28:24.083Z,44.64
2022-10-07T14:31:35.497Z,45.32
2022-10-07T14:34:39.187Z,45.29
2022-10-07T14:37:28.474Z,45.05
2022-10-07T14:39:57.932Z,44.36
2022-10-07T14:42:27.263Z,44.15
2022-10-07T14:44:58.170Z,44.35
2022-10-07T14:47:28.525Z,44.39
2022-10-07T14:49:57.289Z,44.63
2022-10-07T14:55:29.617Z,45.82
2022-10-07T14:57:56.608Z,46.04
2022-10-07T15:00:25.926Z,46.03
2022-10-07T15:02:57.829Z,46.23
2022-10-07T15:05:26.587Z,46.77
2022-10-07T15:07:53.350Z,46.70
2022-10-07T15:10:23.366Z,53.02
2022-10-07T15:12:50.164Z,55.24
2022-10-07T15:15:17.503Z,55.87
2022-10-07T15:17:44.513Z,56.91
2022-10-07T15:20:14.353Z,57.61
2022-10-07T15:22:41.622Z,58.34
2022-10-07T15:25:10.802Z,60.27
2022-10-07T15:27:38.087Z,63.68
2022-10-07T15:30:07.373Z,64.70
2022-10-07T15:32:34.537Z,65.50
2022-10-07T15:35:02.098Z,66.74
2022-10-07T15:37:28.753Z,67.06
2022-10-07T15:39:55.650Z,69.33
2022-10-07T15:42:25.840Z,70.55
2022-10-07T15:44:52.955Z,70.07
2022-10-07T15:47:20.049Z,69.43
2022-10-07T15:49:46.898Z,68.60
2022-10-07T15:52:13.696Z,70.05
2022-10-07T15:54:40.609Z,72.17
2022-10-07T15:57:08.477Z,75.20
2022-10-07T15:59:35.869Z,77.98
2022-10-07T16:02:03.973Z,78.54
2022-10-07T16:04:30.747Z,80.16
2022-10-07T16:06:58.171Z,81.50
2022-10-07T16:09:25.122Z,84.80
2022-10-07T16:11:52.066Z,89.40
2022-10-07T16:14:18.797Z,91.33
2022-10-07T16:16:46.281Z,92.31
2022-10-07T16:19:13.084Z,95.28
2022-10-07T16:21:41.798Z,97.57
2022-10-07T16:24:16.457Z,100.00
2022-10-07T16:26:44.533Z,98.90
2022-10-07T16:29:38.195Z,100.00
2022-10-07T16:32:05.702Z,100.00
2022-10-07T16:34:32.408Z,100.00
2022-10-07T16:36:59.403Z,100.00
2022-10-07T16:39:26.520Z,100.00
2022-10-07T16:41:53.699Z,100.00
2022-10-07T16:44:21.250Z,100.00
2022-10-07T16:46:49.075Z,100.00
2022-10-07T16:49:17.707Z,100.00
2022-10-07T16:51:46.066Z,100.00
2022-10-07T16:54:16.132Z,100.00
2022-10-07T16:56:48.423Z,100.00
2022-10-07T16:59:23.119Z,100.00
2022-10-07T17:01:52.220Z,100.00
2022-10-07T17:04:19.153Z,100.00
2022-10-07T17:06:46.460Z,100.00
2022-10-07T17:09:13.992Z,100.00
2022-10-07T17:11:41.261Z,100.00
2022-10-07T17:14:09.656Z,100.00
2022-10-07T17:16:45.672Z,100.00
2022-10-07T17:19:17.914Z,100.00
2022-10-07T17:21:47.730Z,100.00
2022-10-07T17:24:15.774Z,100.00
2022-10-07T17:26:42.538Z,100.00
2022-10-07T17:29:12.218Z,100.00
2022-10-07T17:31:42.605Z,100.00
2022-10-07T17:34:11.568Z,100.00
2022-10-07T17:36:39.430Z,100.00
2022-10-07T17:39:06.756Z,100.00
2022-10-07T17:41:37.565Z,100.00
2022-10-07T17:44:09.546Z,100.00
2022-10-07T17:46:37.418Z,100.00
2022-10-07T17:49:05.213Z,100.00
2022-10-07T17:51:33.038Z,100.00
2022-10-07T17:54:02.658Z,100.00
2022-10-07T17:56:32.007Z,100.00
2022-10-07T17:58:59.454Z,100.00
2022-10-07T18:01:28.673Z,100.00
2022-10-07T18:04:00.852Z,100.00
2022-10-07T18:06:30.360Z,100.00
2022-10-07T18:08:59.161Z,100.00
2022-10-07T18:11:46.729Z,100.00
2022-10-07T18:14:32.157Z,100.00
2022-10-07T18:16:59.042Z,100.00
2022-10-07T18:19:26.993Z,100.00
2022-10-07T18:21:56.385Z,100.00
2022-10-07T18:24:27.544Z,100.00
2022-10-07T18:26:59.383Z,100.00
2022-10-07T18:29:27.650Z,100.00
2022-10-07T18:31:54.518Z,100.00
2022-10-07T18:34:21.288Z,100.00
2022-10-07T18:36:50.585Z,100.00
2022-10-07T18:39:19.645Z,100.00
2022-10-07T18:41:46.331Z,100.00
2022-10-07T18:44:13.849Z,100.00
2022-10-07T18:46:40.569Z,100.00
2022-10-07T18:49:09.567Z,100.00
2022-10-07T18:51:36.444Z,100.00
2022-10-07T18:54:03.127Z,100.00
2022-10-07T18:56:29.825Z,100.00
2022-10-07T18:58:58.145Z,100.00
2022-10-07T19:01:27.945Z,100.00
2022-10-07T19:03:56.931Z,100.00
2022-10-07T19:06:25.638Z,100.00
2022-10-07T19:08:57.953Z,100.00
2022-10-07T19:11:25.283Z,100.00
2022-10-07T19:13:58.970Z,100.00
2022-10-07T19:16:35.352Z,100.00
2022-10-07T19:19:14.966Z,100.00
2022-10-07T19:21:42.071Z,100.00
2022-10-07T19:24:08.885Z,100.00
2022-10-07T19:26:40.063Z,100.00
2022-10-07T19:29:09.379Z,100.00
2022-10-07T19:31:41.992Z,100.00
2022-10-07T19:34:15.429Z,100.00
2022-10-07T19:36:47.067Z,100.00
2022-10-07T19:39:22.084Z,100.00
2022-10-07T19:41:51.378Z,100.00
2022-10-07T19:44:19.068Z,100.00
2022-10-07T19:46:45.838Z,100.00
2022-10-07T19:49:12.722Z,100.00
2022-10-07T19:51:40.555Z,100.00
2022-10-07T19:54:10.204Z,100.00
2022-10-07T19:56:38.628Z,100.00
2022-10-07T19:59:08.351Z,100.00
2022-10-07T20:01:37.918Z,100.00
2022-10-07T20:04:16.559Z,100.00
2022-10-07T20:06:43.871Z,100.00
2022-10-07T20:09:14.382Z,100.00
2022-10-07T20:11:41.389Z,100.00
2022-10-07T20:14:10.219Z,100.00
2022-10-07T20:16:38.264Z,100.00
2022-10-07T20:19:07.240Z,100.00
2022-10-07T20:21:37.262Z,100.00
2022-10-07T20:24:05.557Z,100.00
2022-10-07T20:26:35.158Z,100.00
2022-10-07T20:29:03.332Z,100.00
2022-10-07T20:31:32.981Z,100.00
2022-10-07T20:34:00.268Z,100.00
2022-10-07T20:36:32.965Z,100.00
2022-10-07T20:39:26.790Z,100.00
2022-10-07T20:42:12.641Z,100.00
2022-10-07T20:44:39.778Z,100.00
2022-10-07T20:47:08.072Z,100.00
2022-10-07T20:49:37.437Z,100.00
2022-10-07T20:52:11.603Z,100.00
2022-10-07T20:54:38.307Z,100.00
2022-10-07T20:57:06.062Z,100.00
2022-10-07T20:59:33.386Z,100.00
2022-10-07T21:02:02.934Z,100.00
2022-10-07T21:04:31.689Z,100.00
2022-10-07T21:06:58.608Z,100.00
2022-10-07T21:09:26.534Z,100.00
2022-10-07T21:11:54.365Z,100.00
2022-10-07T21:14:21.456Z,100.00
2022-10-07T21:16:48.547Z,100.00
2022-10-07T21:19:15.791Z,100.00
2022-10-07T21:21:42.781Z,100.00
2022-10-07T21:24:09.655Z,100.00
2022-10-07T21:26:36.723Z,100.00
2022-10-07T21:29:07.068Z,100.00
2022-10-07T21:31:35.856Z,100.00
2022-10-07T21:34:13.518Z,100.00
2022-10-07T21:36:49.151Z,100.00
2022-10-07T21:39:18.474Z,100.00
2022-10-07T21:41:45.262Z,100.00
2022-10-07T21:44:13.749Z,100.00
2022-10-07T21:46:42.891Z,100.00
2022-10-07T21:49:09.891Z,100.00
2022-10-07T21:51:37.196Z,100.00
2022-10-07T21:54:04.644Z,100.00
2022-10-07T21:56:33.030Z,100.00
2022-10-07T21:59:04.101Z,100.00
2022-10-07T22:01:32.364Z,100.00
2022-10-07T22:04:01.445Z,100.00
2022-10-07T22:06:48.812Z,100.00
2022-10-07T22:09:17.445Z,100.00
2022-10-07T22:11:44.318Z,100.00
2022-10-07T22:14:12.762Z,100.00
2022-10-07T22:16:40.507Z,100.00
2022-10-07T22:19:07.813Z,100.00
2022-10-07T22:21:38.387Z,100.00
2022-10-07T22:24:07.160Z,100.00
2022-10-07T22:26:40.723Z,100.00
2022-10-07T22:29:10.854Z,100.00
2022-10-07T22:31:38.276Z,100.00
2022-10-07T22:34:06.758Z,100.00
2022-10-07T22:36:33.883Z,100.00
2022-10-07T22:39:00.588Z,100.00
2022-10-07T22:41:28.106Z,100.00
2022-10-07T22:43:55.292Z,100.00
2022-10-07T22:46:26.772Z,100.00
2022-10-07T22:48:56.508Z,100.00
2022-10-07T22:51:24.550Z,100.00
2022-10-07T22:53:56.217Z,100.00
2022-10-07T22:56:24.833Z,100.00
2022-10-07T22:58:58.823Z,100.00
2022-10-07T23:01:29.567Z,100.00
2022-10-07T23:03:57.992Z,100.00
2022-10-07T23:06:25.157Z,100.00
2022-10-07T23:08:51.889Z,100.00
2022-10-07T23:11:22.282Z,100.00
2022-10-07T23:13:49.681Z,100.00
2022-10-07T23:16:22.080Z,100.00
2022-10-07T23:18:50.481Z,100.00
2022-10-07T23:21:20.333Z,100.00
2022-10-07T23:23:49.702Z,100.00
2022-10-07T23:26:21.335Z,100.00
2022-10-07T23:28:49.484Z,100.00
2022-10-07T23:31:18.649Z,100.00
2022-10-07T23:33:47.430Z,100.00
2022-10-07T23:36:15.352Z,100.00
2022-10-07T23:38:46.321Z,100.00
2022-10-07T23:41:15.755Z,100.00
2022-10-07T23:43:42.942Z,100.00
2022-10-07T23:46:13.967Z,100.00
2022-10-07T23:48:41.888Z,100.00
2022-10-07T23:51:10.987Z,100.00
2022-10-07T23:53:38.463Z,100.00
2022-10-07T23:56:05.487Z,100.00
2022-10-07T23:58:33.523Z,100.00
